createdAt,value
2022-08-07T00:03:13.155Z,96.82
2022-08-07T00:08:37.767Z,96.24
2022-08-07T00:14:08.696Z,100.00
2022-08-07T00:20:02.635Z,100.00
2022-08-07T00:25:17.686Z,100.00
2022-08-07T00:30:43.742Z,100.00
2022-08-07T00:36:07.844Z,100.00
2022-08-07T00:41:33.472Z,99.56
2022-08-07T00:47:01.791Z,100.00
2022-08-07T00:52:24.889Z,99.39
2022-08-07T00:57:55.843Z,100.00
2022-08-07T01:03:25.467Z,98.02
2022-08-07T01:09:05.495Z,100.00
2022-08-07T01:14:31.009Z,100.00
2022-08-07T01:20:02.363Z,100.00
2022-08-07T01:25:54.756Z,100.00
2022-08-07T01:31:15.512Z,100.00
2022-08-07T01:36:44.117Z,100.00
2022-08-07T01:42:38.096Z,100.00
2022-08-07T01:48:29.833Z,100.00
2022-08-07T01:54:12.341Z,99.52
2022-08-07T01:59:37.037Z,99.13
2022-08-07T02:05:16.167Z,100.00
2022-08-07T02:10:59.255Z,99.11
2022-08-07T02:16:28.620Z,98.77
2022-08-07T02:21:58.606Z,97.93
2022-08-07T02:27:25.023Z,98.43
2022-08-07T02:33:03.832Z,99.93
2022-08-07T02:38:36.498Z,100.00
2022-08-07T02:44:02.391Z,100.00
2022-08-07T02:49:58.202Z,100.00
2022-08-07T02:55:27.967Z,100.00
2022-08-07T03:01:04.852Z,100.00
2022-08-07T03:06:35.867Z,100.00
2022-08-07T03:12:03.672Z,100.00
2022-08-07T03:17:30.306Z,100.00
2022-08-07T03:23:04.515Z,100.00
2022-08-07T03:28:43.610Z,100.00
2022-08-07T03:34:08.672Z,100.00
2022-08-07T03:39:58.882Z,100.00
2022-08-07T03:45:30.254Z,100.00
2022-08-07T03:50:58.294Z,100.00
2022-08-07T03:56:34.705Z,100.00
2022-08-07T04:02:00.940Z,100.00
2022-08-07T04:07:24.599Z,100.00
2022-08-07T04:12:50.909Z,100.00
2022-08-07T04:18:58.386Z,100.00
2022-08-07T04:24:03.467Z,100.00
2022-08-07T04:29:48.862Z,100.00
2022-08-07T04:35:16.103Z,100.00
2022-08-07T04:40:51.269Z,100.00
2022-08-07T04:46:29.534Z,100.00
2022-08-07T04:52:07.975Z,100.00
2022-08-07T04:58:32.100Z,100.00
2022-08-07T05:03:59.861Z,100.00
2022-08-07T05:09:27.978Z,100.00
2022-08-07T05:15:21.627Z,100.00
2022-08-07T05:20:55.775Z,100.00
2022-08-07T05:26:24.171Z,100.00
2022-08-07T05:32:00.675Z,100.00
2022-08-07T05:37:29.722Z,100.00
2022-08-07T05:42:59.630Z,100.00
2022-08-07T05:48:26.357Z,100.00
2022-08-07T05:54:09.238Z,100.00
2022-08-07T05:59:57.215Z,100.00
2022-08-07T06:05:28.447Z,100.00
2022-08-07T06:10:56.943Z,100.00
2022-08-07T06:16:23.435Z,100.00
2022-08-07T06:22:15.415Z,100.00
2022-08-07T06:28:00.007Z,100.00
2022-08-07T06:33:23.415Z,100.00
2022-08-07T06:38:58.374Z,100.00
2022-08-07T06:44:33.921Z,100.00
2022-08-07T06:49:59.051Z,100.00
2022-08-07T06:55:48.059Z,100.00
2022-08-07T07:01:16.644Z,100.00
2022-08-07T07:07:00.279Z,99.59
2022-08-07T07:12:38.205Z,99.18
2022-08-07T07:18:19.131Z,97.78
2022-08-07T07:24:08.529Z,97.69
2022-08-07T07:30:09.430Z,96.58
2022-08-07T07:35:23.980Z,96.73
2022-08-07T07:41:02.083Z,95.24
2022-08-07T07:46:37.884Z,95.56
2022-08-07T07:52:12.799Z,94.46
2022-08-07T07:57:51.901Z,89.43
2022-08-07T08:04:06.243Z,88.78
2022-08-07T08:09:08.239Z,88.61
2022-08-07T08:14:34.502Z,83.53
2022-08-07T08:20:18.487Z,81.80
2022-08-07T08:26:08.299Z,82.34
2022-08-07T08:31:59.260Z,81.63
2022-08-07T08:38:01.507Z,81.54
2022-08-07T08:43:20.907Z,78.66
2022-08-07T08:49:00.490Z,72.01
2022-08-07T08:54:27.228Z,72.92
2022-08-07T09:00:02.178Z,71.94
2022-08-07T09:05:37.487Z,76.69
2022-08-07T09:11:14.013Z,71.87
2022-08-07T09:17:01.025Z,67.60
2022-08-07T09:24:33.191Z,68.79
2022-08-07T09:30:02.169Z,71.22
2022-08-07T09:34:26.352Z,68.09
2022-08-07T09:39:58.170Z,69.48
2022-08-07T09:47:20.263Z,66.80
2022-08-07T09:52:10.225Z,68.31
2022-08-07T09:58:01.132Z,66.57
2022-08-07T10:04:07.084Z,69.21
2022-08-07T10:10:03.770Z,65.90
2022-08-07T10:15:44.820Z,62.45
2022-08-07T10:21:50.590Z,66.08
2022-08-07T10:27:19.313Z,63.87
2022-08-07T10:33:01.016Z,62.88
2022-08-07T10:38:48.800Z,64.06
2022-08-07T10:44:19.488Z,63.45
2022-08-07T10:49:59.077Z,65.03
2022-08-07T10:55:37.636Z,62.42
2022-08-07T11:01:22.222Z,61.96
2022-08-07T11:07:15.120Z,61.94
2022-08-07T11:13:01.910Z,61.06
2022-08-07T11:18:35.264Z,62.72
2022-08-07T11:24:04.940Z,62.07
2022-08-07T11:29:47.265Z,61.78
2022-08-07T11:35:26.757Z,60.83
2022-08-07T11:40:56.215Z,59.84
2022-08-07T11:46:38.088Z,57.84
2022-08-07T11:52:20.753Z,59.88
2022-08-07T11:58:00.878Z,58.17
2022-08-07T12:03:46.426Z,59.37
2022-08-07T12:09:23.527Z,58.82
2022-08-07T12:14:51.476Z,59.49
2022-08-07T12:20:30.621Z,59.75
2022-08-07T12:26:23.360Z,60.12
2022-08-07T12:32:03.762Z,61.96
2022-08-07T12:38:09.721Z,56.15
2022-08-07T12:44:02.194Z,56.04
2022-08-07T12:49:09.911Z,55.28
2022-08-07T12:54:57.327Z,55.36
2022-08-07T13:00:36.054Z,56.94
2022-08-07T13:06:27.960Z,56.74
2022-08-07T13:12:02.385Z,52.42
2022-08-07T13:17:40.093Z,51.12
2022-08-07T13:24:00.711Z,54.46
2022-08-07T13:29:02.183Z,55.92
2022-08-07T13:34:36.502Z,52.01
2022-08-07T13:40:33.387Z,54.69
2022-08-07T13:46:20.811Z,53.01
2022-08-07T13:52:23.112Z,52.27
2022-08-07T13:57:38.546Z,49.56
2022-08-07T14:03:04.802Z,52.55
2022-08-07T14:08:29.907Z,52.17
2022-08-07T14:13:56.949Z,48.45
2022-08-07T14:20:42.554Z,48.63
2022-08-07T14:25:29.364Z,48.97
2022-08-07T14:31:03.044Z,49.77
2022-08-07T14:36:27.597Z,49.79
2022-08-07T14:42:20.778Z,49.60
2022-08-07T14:47:37.168Z,50.39
2022-08-07T14:53:07.671Z,49.43
2022-08-07T14:58:36.426Z,49.55
2022-08-07T15:04:05.830Z,50.26
2022-08-07T15:09:59.293Z,50.18
2022-08-07T15:15:25.413Z,52.51
2022-08-07T15:20:55.107Z,53.83
2022-08-07T15:26:28.850Z,51.83
2022-08-07T15:32:01.361Z,54.39
2022-08-07T15:38:17.276Z,55.02
2022-08-07T15:49:12.654Z,56.92
2022-08-07T15:54:40.730Z,55.96
2022-08-07T16:00:06.918Z,56.17
2022-08-07T16:05:32.783Z,55.83
2022-08-07T16:11:01.076Z,56.81
2022-08-07T16:16:56.981Z,56.10
2022-08-07T16:22:55.464Z,55.59
2022-08-07T16:30:06.876Z,56.71
2022-08-07T16:34:37.890Z,56.64
2022-08-07T16:40:28.356Z,57.04
2022-08-07T16:47:02.878Z,57.46
2022-08-07T16:52:50.554Z,57.70
2022-08-07T16:58:01.700Z,58.09
2022-08-07T17:04:00.023Z,59.77
2022-08-07T17:10:06.466Z,59.32
2022-08-07T17:15:28.821Z,59.10
2022-08-07T17:21:19.115Z,59.07
2022-08-07T17:26:55.909Z,59.07
2022-08-07T17:32:31.206Z,60.00
2022-08-07T17:38:11.316Z,60.40
2022-08-07T17:44:03.256Z,60.91
2022-08-07T17:49:39.384Z,60.49
2022-08-07T17:55:13.518Z,61.69
2022-08-07T18:00:48.865Z,61.57
2022-08-07T18:06:16.433Z,61.93
2022-08-07T18:12:07.334Z,61.81
2022-08-07T18:18:44.762Z,62.81
2022-08-07T18:23:42.983Z,63.16
2022-08-07T18:30:05.572Z,63.34
2022-08-07T18:35:16.755Z,63.25
2022-08-07T18:41:08.049Z,63.86
2022-08-07T18:46:42.950Z,64.15
2022-08-07T18:52:38.844Z,65.02
2022-08-07T18:58:20.649Z,65.85
2022-08-07T19:03:52.009Z,65.67
2022-08-07T19:09:55.595Z,66.93
2022-08-07T19:16:03.229Z,67.06
2022-08-07T19:21:09.260Z,67.35
2022-08-07T19:27:02.019Z,67.59
2022-08-07T19:32:42.346Z,68.08
2022-08-07T19:38:15.884Z,68.52
2022-08-07T19:43:52.159Z,68.68
2022-08-07T19:49:57.642Z,69.34
2022-08-07T19:55:11.115Z,70.04
2022-08-07T20:00:36.482Z,70.93
2022-08-07T20:06:03.197Z,71.96
2022-08-07T20:12:22.405Z,72.66
2022-08-07T20:17:14.678Z,73.09
2022-08-07T20:22:45.448Z,74.01
2022-08-07T20:28:12.774Z,75.24
2022-08-07T20:33:41.977Z,75.68
2022-08-07T20:40:01.469Z,76.58
2022-08-07T20:44:52.819Z,78.67
2022-08-07T20:50:21.197Z,79.11
2022-08-07T20:55:52.648Z,79.98
2022-08-07T21:01:19.869Z,80.22
2022-08-07T21:06:46.615Z,80.47
2022-08-07T21:12:25.923Z,79.77
2022-08-07T21:18:01.977Z,80.13
2022-08-07T21:23:49.271Z,78.81
2022-08-07T21:29:19.126Z,78.03
2022-08-07T21:34:49.074Z,78.62
2022-08-07T21:40:23.282Z,79.29
2022-08-07T21:46:11.079Z,80.41
2022-08-07T21:51:54.495Z,80.72
2022-08-07T21:57:39.840Z,79.52
2022-08-07T22:03:17.373Z,81.81
2022-08-07T22:08:50.021Z,82.42
2022-08-07T22:14:15.338Z,83.23
2022-08-07T22:20:05.007Z,83.04
2022-08-07T22:25:40.478Z,83.50
2022-08-07T22:31:11.412Z,83.34
2022-08-07T22:37:09.453Z,82.99
2022-08-07T22:42:37.166Z,82.94
2022-08-07T22:48:13.679Z,84.50
2022-08-07T22:54:09.460Z,86.49
2022-08-07T22:59:50.686Z,86.49
2022-08-07T23:06:07.048Z,87.38
2022-08-07T23:11:46.166Z,87.28
2022-08-07T23:17:24.168Z,87.73
2022-08-07T23:22:59.870Z,88.55
2022-08-07T23:28:44.155Z,87.53
2022-08-07T23:34:39.353Z,88.79
2022-08-07T23:40:23.798Z,89.57
2022-08-07T23:46:03.121Z,92.03
2022-08-07T23:53:00.668Z,92.09
2022-08-07T23:57:24.309Z,93.56
